sensor_id;sensor_type;location;lat;lon;timestamp;P1;durP1;ratioP1;P2;durP2;ratioP2
36379;SDS011;22411;53.016;18.632;2023-01-13T00:00:01;5.78;;;2.67;;
36379;SDS011;22411;53.016;18.632;2023-01-13T00:02:29;4.55;;;3.03;;
36379;SDS011;22411;53.016;18.632;2023-01-13T00:04:55;6.93;;;3.78;;
36379;SDS011;22411;53.016;18.632;2023-01-13T00:07:21;7.75;;;3.70;;
36379;SDS011;22411;53.016;18.632;2023-01-13T00:09:47;4.80;;;3.08;;
36379;SDS011;22411;53.016;18.632;2023-01-13T00:12:13;6.50;;;3.45;;
36379;SDS011;22411;53.016;18.632;2023-01-13T00:14:39;5.07;;;3.63;;
36379;SDS011;22411;53.016;18.632;2023-01-13T00:17:05;6.38;;;4.10;;
36379;SDS011;22411;53.016;18.632;2023-01-13T00:19:31;4.50;;;3.35;;
36379;SDS011;22411;53.016;18.632;2023-01-13T00:21:57;8.07;;;4.43;;
36379;SDS011;22411;53.016;18.632;2023-01-13T00:24:23;6.53;;;3.45;;
36379;SDS011;22411;53.016;18.632;2023-01-13T00:26:49;5.38;;;3.90;;
36379;SDS011;22411;53.016;18.632;2023-01-13T00:29:17;5.50;;;3.78;;
36379;SDS011;22411;53.016;18.632;2023-01-13T00:31:43;5.18;;;3.72;;
36379;SDS011;22411;53.016;18.632;2023-01-13T00:34:09;6.35;;;3.83;;
36379;SDS011;22411;53.016;18.632;2023-01-13T00:36:35;6.43;;;4.07;;
36379;SDS011;22411;53.016;18.632;2023-01-13T00:39:01;5.28;;;3.88;;
36379;SDS011;22411;53.016;18.632;2023-01-13T00:41:27;8.18;;;3.90;;
36379;SDS011;22411;53.016;18.632;2023-01-13T00:44:13;9.25;;;4.47;;
36379;SDS011;22411;53.016;18.632;2023-01-13T00:46:39;8.88;;;4.95;;
36379;SDS011;22411;53.016;18.632;2023-01-13T00:49:05;8.60;;;4.75;;
36379;SDS011;22411;53.016;18.632;2023-01-13T00:51:31;5.95;;;4.88;;
36379;SDS011;22411;53.016;18.632;2023-01-13T00:53:57;6.25;;;4.95;;
36379;SDS011;22411;53.016;18.632;2023-01-13T00:56:23;6.47;;;5.22;;
36379;SDS011;22411;53.016;18.632;2023-01-13T00:58:50;8.75;;;5.28;;
36379;SDS011;22411;53.016;18.632;2023-01-13T01:01:21;10.18;;;5.97;;
36379;SDS011;22411;53.016;18.632;2023-01-13T01:03:52;8.57;;;5.38;;
36379;SDS011;22411;53.016;18.632;2023-01-13T01:06:20;8.80;;;6.00;;
36379;SDS011;22411;53.016;18.632;2023-01-13T01:08:49;7.95;;;6.20;;
36379;SDS011;22411;53.016;18.632;2023-01-13T01:11:18;9.32;;;6.22;;
36379;SDS011;22411;53.016;18.632;2023-01-13T01:13:46;9.30;;;5.95;;
36379;SDS011;22411;53.016;18.632;2023-01-13T01:16:14;10.38;;;6.72;;
36379;SDS011;22411;53.016;18.632;2023-01-13T01:18:42;8.45;;;6.88;;
36379;SDS011;22411;53.016;18.632;2023-01-13T01:21:10;10.27;;;6.82;;
36379;SDS011;22411;53.016;18.632;2023-01-13T01:23:37;9.45;;;6.40;;
36379;SDS011;22411;53.016;18.632;2023-01-13T01:26:07;9.82;;;7.22;;
36379;SDS011;22411;53.016;18.632;2023-01-13T01:28:36;9.77;;;6.93;;
36379;SDS011;22411;53.016;18.632;2023-01-13T01:31:11;10.43;;;6.78;;
36379;SDS011;22411;53.016;18.632;2023-01-13T01:33:39;9.43;;;7.07;;
36379;SDS011;22411;53.016;18.632;2023-01-13T01:36:05;7.53;;;6.72;;
36379;SDS011;22411;53.016;18.632;2023-01-13T01:38:32;12.38;;;7.38;;
36379;SDS011;22411;53.016;18.632;2023-01-13T01:40:58;13.20;;;7.60;;
36379;SDS011;22411;53.016;18.632;2023-01-13T01:43:45;10.80;;;7.13;;
36379;SDS011;22411;53.016;18.632;2023-01-13T01:49:19;10.13;;;7.22;;
36379;SDS011;22411;53.016;18.632;2023-01-13T01:52:09;9.02;;;6.68;;
36379;SDS011;22411;53.016;18.632;2023-01-13T02:00:20;11.15;;;7.53;;
36379;SDS011;22411;53.016;18.632;2023-01-13T02:02:47;10.50;;;7.57;;
36379;SDS011;22411;53.016;18.632;2023-01-13T02:05:16;11.18;;;7.53;;
36379;SDS011;22411;53.016;18.632;2023-01-13T02:07:43;12.05;;;8.20;;
36379;SDS011;22411;53.016;18.632;2023-01-13T02:10:13;9.50;;;8.27;;
36379;SDS011;22411;53.016;18.632;2023-01-13T02:12:43;9.93;;;6.95;;
36379;SDS011;22411;53.016;18.632;2023-01-13T02:15:14;10.68;;;6.97;;
36379;SDS011;22411;53.016;18.632;2023-01-13T02:32:25;8.88;;;6.45;;
36379;SDS011;22411;53.016;18.632;2023-01-13T02:37:27;9.77;;;5.78;;
36379;SDS011;22411;53.016;18.632;2023-01-13T02:40:00;7.93;;;5.45;;
36379;SDS011;22411;53.016;18.632;2023-01-13T02:42:34;9.00;;;6.25;;
36379;SDS011;22411;53.016;18.632;2023-01-13T02:48:15;7.50;;;6.13;;
36379;SDS011;22411;53.016;18.632;2023-01-13T02:50:55;10.07;;;7.43;;
36379;SDS011;22411;53.016;18.632;2023-01-13T02:56:18;6.40;;;4.65;;
36379;SDS011;22411;53.016;18.632;2023-01-13T02:58:48;7.85;;;5.63;;
36379;SDS011;22411;53.016;18.632;2023-01-13T03:01:15;7.10;;;4.90;;
36379;SDS011;22411;53.016;18.632;2023-01-13T03:03:42;5.15;;;4.28;;
36379;SDS011;22411;53.016;18.632;2023-01-13T03:11:20;9.05;;;5.18;;
36379;SDS011;22411;53.016;18.632;2023-01-13T03:13:50;6.10;;;4.93;;
36379;SDS011;22411;53.016;18.632;2023-01-13T03:24:50;6.85;;;4.47;;
36379;SDS011;22411;53.016;18.632;2023-01-13T03:27:30;5.65;;;4.25;;
36379;SDS011;22411;53.016;18.632;2023-01-13T03:32:55;7.00;;;4.95;;
36379;SDS011;22411;53.016;18.632;2023-01-13T03:35:30;6.25;;;4.45;;
36379;SDS011;22411;53.016;18.632;2023-01-13T03:38:02;5.95;;;4.38;;
36379;SDS011;22411;53.016;18.632;2023-01-13T03:40:44;6.50;;;4.32;;
36379;SDS011;22411;53.016;18.632;2023-01-13T03:43:15;6.15;;;4.75;;
36379;SDS011;22411;53.016;18.632;2023-01-13T03:46:07;6.45;;;4.63;;
36379;SDS011;22411;53.016;18.632;2023-01-13T03:48:40;5.38;;;4.80;;
36379;SDS011;22411;53.016;18.632;2023-01-13T03:51:11;5.60;;;4.55;;
36379;SDS011;22411;53.016;18.632;2023-01-13T03:53:44;5.90;;;4.65;;
36379;SDS011;22411;53.016;18.632;2023-01-13T03:58:50;6.97;;;4.47;;
36379;SDS011;22411;53.016;18.632;2023-01-13T04:01:20;6.15;;;4.38;;
36379;SDS011;22411;53.016;18.632;2023-01-13T04:04:29;6.05;;;4.63;;
36379;SDS011;22411;53.016;18.632;2023-01-13T04:10:09;5.90;;;4.57;;
36379;SDS011;22411;53.016;18.632;2023-01-13T04:12:39;6.70;;;4.90;;
36379;SDS011;22411;53.016;18.632;2023-01-13T04:15:36;7.38;;;5.60;;
36379;SDS011;22411;53.016;18.632;2023-01-13T04:18:12;6.70;;;4.80;;
36379;SDS011;22411;53.016;18.632;2023-01-13T04:20:43;5.28;;;4.63;;
36379;SDS011;22411;53.016;18.632;2023-01-13T04:23:11;7.55;;;4.38;;
36379;SDS011;22411;53.016;18.632;2023-01-13T04:25:38;5.55;;;4.50;;
36379;SDS011;22411;53.016;18.632;2023-01-13T04:28:05;9.63;;;5.18;;
36379;SDS011;22411;53.016;18.632;2023-01-13T04:30:32;6.47;;;4.80;;
36379;SDS011;22411;53.016;18.632;2023-01-13T04:32:58;6.13;;;5.03;;
36379;SDS011;22411;53.016;18.632;2023-01-13T04:35:24;4.50;;;3.90;;
36379;SDS011;22411;53.016;18.632;2023-01-13T04:37:50;6.88;;;5.10;;
36379;SDS011;22411;53.016;18.632;2023-01-13T04:40:16;5.10;;;4.25;;
36379;SDS011;22411;53.016;18.632;2023-01-13T04:42:43;5.60;;;4.43;;
36379;SDS011;22411;53.016;18.632;2023-01-13T04:45:10;6.22;;;5.25;;
36379;SDS011;22411;53.016;18.632;2023-01-13T04:47:36;6.40;;;5.20;;
36379;SDS011;22411;53.016;18.632;2023-01-13T04:50:02;6.05;;;5.32;;
36379;SDS011;22411;53.016;18.632;2023-01-13T04:52:29;5.25;;;4.75;;
36379;SDS011;22411;53.016;18.632;2023-01-13T04:54:56;7.68;;;5.53;;
36379;SDS011;22411;53.016;18.632;2023-01-13T04:57:22;6.57;;;4.70;;
36379;SDS011;22411;53.016;18.632;2023-01-13T04:59:48;5.63;;;4.30;;
36379;SDS011;22411;53.016;18.632;2023-01-13T05:02:14;5.50;;;4.18;;
36379;SDS011;22411;53.016;18.632;2023-01-13T05:04:45;5.50;;;3.90;;
36379;SDS011;22411;53.016;18.632;2023-01-13T05:07:12;5.18;;;4.13;;
36379;SDS011;22411;53.016;18.632;2023-01-13T05:09:39;5.10;;;4.28;;
36379;SDS011;22411;53.016;18.632;2023-01-13T05:12:05;5.00;;;4.43;;
36379;SDS011;22411;53.016;18.632;2023-01-13T05:14:49;4.80;;;4.35;;
36379;SDS011;22411;53.016;18.632;2023-01-13T05:17:34;5.35;;;4.30;;
36379;SDS011;22411;53.016;18.632;2023-01-13T05:20:01;6.05;;;4.75;;
36379;SDS011;22411;53.016;18.632;2023-01-13T05:22:28;6.10;;;5.05;;
36379;SDS011;22411;53.016;18.632;2023-01-13T05:25:12;5.00;;;4.05;;
36379;SDS011;22411;53.016;18.632;2023-01-13T05:27:49;5.72;;;4.60;;
36379;SDS011;22411;53.016;18.632;2023-01-13T05:30:23;5.30;;;4.72;;
36379;SDS011;22411;53.016;18.632;2023-01-13T05:32:51;8.13;;;4.50;;
36379;SDS011;22411;53.016;18.632;2023-01-13T05:35:17;6.57;;;5.53;;
36379;SDS011;22411;53.016;18.632;2023-01-13T05:37:43;5.50;;;4.95;;
36379;SDS011;22411;53.016;18.632;2023-01-13T05:40:12;8.00;;;4.78;;
36379;SDS011;22411;53.016;18.632;2023-01-13T05:45:49;5.82;;;4.95;;
36379;SDS011;22411;53.016;18.632;2023-01-13T05:48:22;5.53;;;4.47;;
36379;SDS011;22411;53.016;18.632;2023-01-13T05:50:49;4.88;;;4.25;;
36379;SDS011;22411;53.016;18.632;2023-01-13T05:53:16;5.75;;;5.15;;
36379;SDS011;22411;53.016;18.632;2023-01-13T05:55:43;8.40;;;6.35;;
36379;SDS011;22411;53.016;18.632;2023-01-13T05:58:11;7.22;;;4.68;;
36379;SDS011;22411;53.016;18.632;2023-01-13T06:00:39;8.45;;;5.78;;
36379;SDS011;22411;53.016;18.632;2023-01-13T06:03:05;5.60;;;4.97;;
36379;SDS011;22411;53.016;18.632;2023-01-13T06:05:32;5.15;;;4.65;;
36379;SDS011;22411;53.016;18.632;2023-01-13T06:07:59;7.20;;;5.40;;
36379;SDS011;22411;53.016;18.632;2023-01-13T06:10:27;5.60;;;3.78;;
36379;SDS011;22411;53.016;18.632;2023-01-13T06:12:54;5.97;;;4.38;;
36379;SDS011;22411;53.016;18.632;2023-01-13T06:15:21;7.55;;;4.63;;
36379;SDS011;22411;53.016;18.632;2023-01-13T06:17:48;5.47;;;3.72;;
36379;SDS011;22411;53.016;18.632;2023-01-13T06:20:15;3.75;;;3.28;;
36379;SDS011;22411;53.016;18.632;2023-01-13T06:22:42;4.50;;;3.38;;
36379;SDS011;22411;53.016;18.632;2023-01-13T06:25:17;14.82;;;7.88;;
36379;SDS011;22411;53.016;18.632;2023-01-13T06:27:50;5.28;;;3.95;;
36379;SDS011;22411;53.016;18.632;2023-01-13T06:30:18;4.85;;;3.30;;
36379;SDS011;22411;53.016;18.632;2023-01-13T06:32:45;4.18;;;3.35;;
36379;SDS011;22411;53.016;18.632;2023-01-13T06:35:19;4.13;;;3.35;;
36379;SDS011;22411;53.016;18.632;2023-01-13T06:37:49;3.90;;;2.90;;
36379;SDS011;22411;53.016;18.632;2023-01-13T06:40:18;4.30;;;3.60;;
36379;SDS011;22411;53.016;18.632;2023-01-13T06:42:43;6.72;;;3.72;;
36379;SDS011;22411;53.016;18.632;2023-01-13T06:45:29;3.65;;;2.83;;
36379;SDS011;22411;53.016;18.632;2023-01-13T06:47:56;4.68;;;3.67;;
36379;SDS011;22411;53.016;18.632;2023-01-13T06:50:24;4.72;;;3.33;;
36379;SDS011;22411;53.016;18.632;2023-01-13T06:52:51;5.55;;;3.08;;
36379;SDS011;22411;53.016;18.632;2023-01-13T06:55:17;5.10;;;4.20;;
36379;SDS011;22411;53.016;18.632;2023-01-13T06:57:49;6.28;;;3.88;;
36379;SDS011;22411;53.016;18.632;2023-01-13T07:00:17;11.23;;;5.72;;
36379;SDS011;22411;53.016;18.632;2023-01-13T07:02:44;9.18;;;5.72;;
36379;SDS011;22411;53.016;18.632;2023-01-13T07:05:10;10.05;;;5.55;;
36379;SDS011;22411;53.016;18.632;2023-01-13T07:07:36;7.75;;;5.50;;
36379;SDS011;22411;53.016;18.632;2023-01-13T07:10:02;6.97;;;5.30;;
36379;SDS011;22411;53.016;18.632;2023-01-13T07:12:29;8.82;;;4.38;;
36379;SDS011;22411;53.016;18.632;2023-01-13T07:14:56;7.50;;;4.88;;
36379;SDS011;22411;53.016;18.632;2023-01-13T07:17:40;6.95;;;4.55;;
36379;SDS011;22411;53.016;18.632;2023-01-13T07:20:06;5.53;;;4.97;;
36379;SDS011;22411;53.016;18.632;2023-01-13T07:22:32;5.22;;;4.68;;
36379;SDS011;22411;53.016;18.632;2023-01-13T07:24:59;9.80;;;6.47;;
36379;SDS011;22411;53.016;18.632;2023-01-13T07:27:24;8.98;;;5.68;;
36379;SDS011;22411;53.016;18.632;2023-01-13T07:29:50;8.35;;;5.22;;
36379;SDS011;22411;53.016;18.632;2023-01-13T07:32:16;8.65;;;4.95;;
36379;SDS011;22411;53.016;18.632;2023-01-13T07:34:43;8.48;;;5.28;;
36379;SDS011;22411;53.016;18.632;2023-01-13T07:37:09;7.80;;;6.28;;
36379;SDS011;22411;53.016;18.632;2023-01-13T07:39:35;8.40;;;5.97;;
36379;SDS011;22411;53.016;18.632;2023-01-13T07:42:01;8.75;;;6.63;;
36379;SDS011;22411;53.016;18.632;2023-01-13T07:44:45;7.05;;;5.60;;
36379;SDS011;22411;53.016;18.632;2023-01-13T07:47:11;7.40;;;6.00;;
36379;SDS011;22411;53.016;18.632;2023-01-13T07:49:37;9.82;;;7.28;;
36379;SDS011;22411;53.016;18.632;2023-01-13T07:52:03;25.35;;;15.52;;
36379;SDS011;22411;53.016;18.632;2023-01-13T07:54:29;10.20;;;6.18;;
36379;SDS011;22411;53.016;18.632;2023-01-13T07:56:55;14.75;;;9.75;;
36379;SDS011;22411;53.016;18.632;2023-01-13T07:59:21;16.58;;;11.10;;
36379;SDS011;22411;53.016;18.632;2023-01-13T08:01:47;9.82;;;7.30;;
36379;SDS011;22411;53.016;18.632;2023-01-13T08:04:13;8.27;;;6.03;;
36379;SDS011;22411;53.016;18.632;2023-01-13T08:06:39;12.80;;;9.15;;
36379;SDS011;22411;53.016;18.632;2023-01-13T08:09:07;7.18;;;5.50;;
36379;SDS011;22411;53.016;18.632;2023-01-13T08:11:33;5.55;;;4.95;;
36379;SDS011;22411;53.016;18.632;2023-01-13T08:13:59;7.60;;;6.45;;
36379;SDS011;22411;53.016;18.632;2023-01-13T08:16:26;7.65;;;5.43;;
36379;SDS011;22411;53.016;18.632;2023-01-13T08:18:52;10.35;;;8.77;;
36379;SDS011;22411;53.016;18.632;2023-01-13T08:21:18;8.45;;;4.88;;
36379;SDS011;22411;53.016;18.632;2023-01-13T08:23:44;6.35;;;4.60;;
36379;SDS011;22411;53.016;18.632;2023-01-13T08:26:11;7.95;;;4.82;;
36379;SDS011;22411;53.016;18.632;2023-01-13T08:28:39;6.43;;;4.63;;
36379;SDS011;22411;53.016;18.632;2023-01-13T08:31:06;9.07;;;5.60;;
36379;SDS011;22411;53.016;18.632;2023-01-13T08:33:35;9.70;;;6.20;;
36379;SDS011;22411;53.016;18.632;2023-01-13T08:36:02;6.43;;;4.53;;
36379;SDS011;22411;53.016;18.632;2023-01-13T08:38:34;11.05;;;6.78;;
36379;SDS011;22411;53.016;18.632;2023-01-13T08:41:06;7.68;;;5.50;;
36379;SDS011;22411;53.016;18.632;2023-01-13T08:43:34;12.95;;;8.05;;
36379;SDS011;22411;53.016;18.632;2023-01-13T08:46:00;9.10;;;4.97;;
36379;SDS011;22411;53.016;18.632;2023-01-13T08:48:29;9.57;;;6.28;;
36379;SDS011;22411;53.016;18.632;2023-01-13T08:51:00;6.95;;;5.18;;
36379;SDS011;22411;53.016;18.632;2023-01-13T08:53:27;8.18;;;5.95;;
36379;SDS011;22411;53.016;18.632;2023-01-13T08:55:54;7.72;;;6.03;;
36379;SDS011;22411;53.016;18.632;2023-01-13T08:58:21;9.60;;;6.20;;
36379;SDS011;22411;53.016;18.632;2023-01-13T09:00:47;12.73;;;8.65;;
36379;SDS011;22411;53.016;18.632;2023-01-13T09:03:14;12.25;;;8.20;;
36379;SDS011;22411;53.016;18.632;2023-01-13T09:05:40;10.52;;;7.97;;
36379;SDS011;22411;53.016;18.632;2023-01-13T09:08:06;13.60;;;8.05;;
36379;SDS011;22411;53.016;18.632;2023-01-13T09:10:32;9.98;;;6.47;;
36379;SDS011;22411;53.016;18.632;2023-01-13T09:13:00;11.50;;;7.40;;
36379;SDS011;22411;53.016;18.632;2023-01-13T09:15:38;10.52;;;6.47;;
36379;SDS011;22411;53.016;18.632;2023-01-13T09:18:06;11.32;;;8.23;;
36379;SDS011;22411;53.016;18.632;2023-01-13T09:20:32;10.80;;;8.02;;
36379;SDS011;22411;53.016;18.632;2023-01-13T09:22:58;12.73;;;7.28;;
36379;SDS011;22411;53.016;18.632;2023-01-13T09:25:24;13.45;;;9.55;;
36379;SDS011;22411;53.016;18.632;2023-01-13T09:27:51;13.45;;;9.85;;
36379;SDS011;22411;53.016;18.632;2023-01-13T09:30:16;10.02;;;7.10;;
36379;SDS011;22411;53.016;18.632;2023-01-13T09:32:43;8.55;;;6.65;;
36379;SDS011;22411;53.016;18.632;2023-01-13T09:35:08;7.40;;;5.63;;
36379;SDS011;22411;53.016;18.632;2023-01-13T09:37:36;14.38;;;9.88;;
36379;SDS011;22411;53.016;18.632;2023-01-13T09:40:14;7.00;;;6.00;;
36379;SDS011;22411;53.016;18.632;2023-01-13T09:42:48;8.98;;;5.15;;
36379;SDS011;22411;53.016;18.632;2023-01-13T09:53:42;9.15;;;6.65;;
36379;SDS011;22411;53.016;18.632;2023-01-13T09:56:12;5.95;;;4.40;;
36379;SDS011;22411;53.016;18.632;2023-01-13T09:58:39;8.77;;;7.88;;
36379;SDS011;22411;53.016;18.632;2023-01-13T10:01:13;7.53;;;4.60;;
36379;SDS011;22411;53.016;18.632;2023-01-13T10:03:46;7.28;;;5.05;;
36379;SDS011;22411;53.016;18.632;2023-01-13T10:06:18;7.97;;;6.25;;
36379;SDS011;22411;53.016;18.632;2023-01-13T10:08:48;5.90;;;4.32;;
36379;SDS011;22411;53.016;18.632;2023-01-13T10:11:19;5.80;;;5.13;;
36379;SDS011;22411;53.016;18.632;2023-01-13T10:17:03;7.20;;;5.10;;
36379;SDS011;22411;53.016;18.632;2023-01-13T10:19:56;4.40;;;3.47;;
36379;SDS011;22411;53.016;18.632;2023-01-13T10:27:52;5.38;;;3.95;;
36379;SDS011;22411;53.016;18.632;2023-01-13T10:30:25;5.22;;;4.72;;
36379;SDS011;22411;53.016;18.632;2023-01-13T10:32:56;6.88;;;5.05;;
36379;SDS011;22411;53.016;18.632;2023-01-13T10:38:16;5.03;;;4.22;;
36379;SDS011;22411;53.016;18.632;2023-01-13T10:40:57;7.60;;;4.57;;
36379;SDS011;22411;53.016;18.632;2023-01-13T10:43:26;6.70;;;4.32;;
36379;SDS011;22411;53.016;18.632;2023-01-13T10:45:58;8.88;;;4.22;;
36379;SDS011;22411;53.016;18.632;2023-01-13T10:48:34;4.80;;;2.60;;
36379;SDS011;22411;53.016;18.632;2023-01-13T10:53:43;6.22;;;3.20;;
36379;SDS011;22411;53.016;18.632;2023-01-13T10:56:31;8.82;;;5.05;;
36379;SDS011;22411;53.016;18.632;2023-01-13T11:02:02;10.93;;;6.13;;
36379;SDS011;22411;53.016;18.632;2023-01-13T11:04:40;9.15;;;5.93;;
36379;SDS011;22411;53.016;18.632;2023-01-13T11:07:28;6.20;;;3.22;;
36379;SDS011;22411;53.016;18.632;2023-01-13T11:10:22;5.95;;;3.10;;
36379;SDS011;22411;53.016;18.632;2023-01-13T11:12:55;7.85;;;3.88;;
36379;SDS011;22411;53.016;18.632;2023-01-13T11:15:42;7.05;;;4.18;;
36379;SDS011;22411;53.016;18.632;2023-01-13T11:21:03;10.77;;;6.00;;
36379;SDS011;22411;53.016;18.632;2023-01-13T11:23:44;8.52;;;3.92;;
36379;SDS011;22411;53.016;18.632;2023-01-13T11:26:22;4.75;;;3.05;;
36379;SDS011;22411;53.016;18.632;2023-01-13T11:32:19;4.90;;;2.78;;
36379;SDS011;22411;53.016;18.632;2023-01-13T11:34:48;5.28;;;3.47;;
36379;SDS011;22411;53.016;18.632;2023-01-13T11:37:29;7.20;;;4.13;;
36379;SDS011;22411;53.016;18.632;2023-01-13T11:40:03;6.53;;;2.83;;
36379;SDS011;22411;53.016;18.632;2023-01-13T11:42:32;7.35;;;3.03;;
36379;SDS011;22411;53.016;18.632;2023-01-13T11:47:42;5.53;;;2.55;;
36379;SDS011;22411;53.016;18.632;2023-01-13T11:50:16;6.20;;;3.38;;
36379;SDS011;22411;53.016;18.632;2023-01-13T11:52:56;6.70;;;3.67;;
36379;SDS011;22411;53.016;18.632;2023-01-13T11:55:52;6.25;;;3.05;;
36379;SDS011;22411;53.016;18.632;2023-01-13T12:04:08;7.78;;;3.88;;
36379;SDS011;22411;53.016;18.632;2023-01-13T12:12:32;6.22;;;4.80;;
36379;SDS011;22411;53.016;18.632;2023-01-13T12:15:21;9.68;;;5.10;;
36379;SDS011;22411;53.016;18.632;2023-01-13T12:26:48;9.77;;;5.07;;
36379;SDS011;22411;53.016;18.632;2023-01-13T12:29:20;13.45;;;6.35;;
36379;SDS011;22411;53.016;18.632;2023-01-13T12:32:01;9.20;;;5.50;;
36379;SDS011;22411;53.016;18.632;2023-01-13T12:34:34;5.30;;;2.45;;
36379;SDS011;22411;53.016;18.632;2023-01-13T12:39:51;5.72;;;3.28;;
36379;SDS011;22411;53.016;18.632;2023-01-13T12:42:28;5.00;;;2.75;;
36379;SDS011;22411;53.016;18.632;2023-01-13T12:45:27;6.93;;;3.10;;
36379;SDS011;22411;53.016;18.632;2023-01-13T12:47:55;4.00;;;2.55;;
36379;SDS011;22411;53.016;18.632;2023-01-13T12:52:49;5.35;;;3.65;;
36379;SDS011;22411;53.016;18.632;2023-01-13T12:55:23;6.05;;;2.92;;
36379;SDS011;22411;53.016;18.632;2023-01-13T13:14:14;5.75;;;3.58;;
36379;SDS011;22411;53.016;18.632;2023-01-13T13:19:45;5.47;;;3.90;;
36379;SDS011;22411;53.016;18.632;2023-01-13T13:38:49;6.60;;;3.92;;
36379;SDS011;22411;53.016;18.632;2023-01-13T13:41:36;7.75;;;4.50;;
36379;SDS011;22411;53.016;18.632;2023-01-13T13:44:25;7.40;;;3.63;;
36379;SDS011;22411;53.016;18.632;2023-01-13T13:47:13;6.72;;;5.03;;
36379;SDS011;22411;53.016;18.632;2023-01-13T13:49:46;10.52;;;5.93;;
36379;SDS011;22411;53.016;18.632;2023-01-13T13:52:23;8.43;;;5.03;;
36379;SDS011;22411;53.016;18.632;2023-01-13T13:55:35;5.25;;;4.22;;
36379;SDS011;22411;53.016;18.632;2023-01-13T13:57:54;5.40;;;3.30;;
36379;SDS011;22411;53.016;18.632;2023-01-13T14:00:23;5.07;;;2.83;;
36379;SDS011;22411;53.016;18.632;2023-01-13T14:02:59;4.80;;;3.45;;
36379;SDS011;22411;53.016;18.632;2023-01-13T14:05:51;4.80;;;3.50;;
36379;SDS011;22411;53.016;18.632;2023-01-13T14:08:26;4.77;;;3.17;;
36379;SDS011;22411;53.016;18.632;2023-01-13T14:10:57;5.72;;;3.05;;
36379;SDS011;22411;53.016;18.632;2023-01-13T14:13:25;6.72;;;4.22;;
36379;SDS011;22411;53.016;18.632;2023-01-13T14:16:00;4.97;;;3.63;;
36379;SDS011;22411;53.016;18.632;2023-01-13T14:18:29;4.78;;;3.22;;
36379;SDS011;22411;53.016;18.632;2023-01-13T14:20:58;4.70;;;3.22;;
36379;SDS011;22411;53.016;18.632;2023-01-13T14:23:28;8.32;;;4.00;;
36379;SDS011;22411;53.016;18.632;2023-01-13T14:26:06;5.88;;;3.58;;
36379;SDS011;22411;53.016;18.632;2023-01-13T14:28:37;5.97;;;4.63;;
36379;SDS011;22411;53.016;18.632;2023-01-13T14:31:06;8.73;;;5.13;;
36379;SDS011;22411;53.016;18.632;2023-01-13T14:33:35;7.28;;;5.22;;
36379;SDS011;22411;53.016;18.632;2023-01-13T14:41:33;4.97;;;3.90;;
36379;SDS011;22411;53.016;18.632;2023-01-13T14:44:31;10.70;;;6.18;;
36379;SDS011;22411;53.016;18.632;2023-01-13T14:47:23;2.75;;;1.67;;
36379;SDS011;22411;53.016;18.632;2023-01-13T14:50:03;3.58;;;2.03;;
36379;SDS011;22411;53.016;18.632;2023-01-13T14:52:47;4.70;;;2.15;;
36379;SDS011;22411;53.016;18.632;2023-01-13T14:55:23;4.03;;;2.60;;
36379;SDS011;22411;53.016;18.632;2023-01-13T14:58:11;3.22;;;2.15;;
36379;SDS011;22411;53.016;18.632;2023-01-13T15:00:51;4.43;;;1.45;;
36379;SDS011;22411;53.016;18.632;2023-01-13T15:03:53;4.13;;;1.95;;
36379;SDS011;22411;53.016;18.632;2023-01-13T15:06:23;3.90;;;2.13;;
36379;SDS011;22411;53.016;18.632;2023-01-13T15:08:53;5.07;;;3.40;;
36379;SDS011;22411;53.016;18.632;2023-01-13T15:11:21;3.85;;;2.40;;
36379;SDS011;22411;53.016;18.632;2023-01-13T15:13:53;5.93;;;4.90;;
36379;SDS011;22411;53.016;18.632;2023-01-13T15:16:28;6.53;;;3.97;;
36379;SDS011;22411;53.016;18.632;2023-01-13T15:19:02;4.72;;;3.38;;
36379;SDS011;22411;53.016;18.632;2023-01-13T15:21:28;2.67;;;1.60;;
36379;SDS011;22411;53.016;18.632;2023-01-13T15:23:55;5.03;;;3.13;;
36379;SDS011;22411;53.016;18.632;2023-01-13T15:26:22;5.22;;;3.45;;
36379;SDS011;22411;53.016;18.632;2023-01-13T15:28:54;4.53;;;3.17;;
36379;SDS011;22411;53.016;18.632;2023-01-13T15:31:22;6.55;;;4.10;;
36379;SDS011;22411;53.016;18.632;2023-01-13T15:33:49;5.43;;;3.08;;
36379;SDS011;22411;53.016;18.632;2023-01-13T15:38:54;6.22;;;3.85;;
36379;SDS011;22411;53.016;18.632;2023-01-13T15:41:20;5.40;;;2.95;;
36379;SDS011;22411;53.016;18.632;2023-01-13T15:44:08;9.65;;;6.60;;
36379;SDS011;22411;53.016;18.632;2023-01-13T15:46:54;6.57;;;4.53;;
36379;SDS011;22411;53.016;18.632;2023-01-13T15:51:51;8.75;;;5.75;;
36379;SDS011;22411;53.016;18.632;2023-01-13T15:54:17;10.02;;;6.57;;
36379;SDS011;22411;53.016;18.632;2023-01-13T15:56:47;7.55;;;5.63;;
36379;SDS011;22411;53.016;18.632;2023-01-13T15:59:17;7.47;;;6.13;;
36379;SDS011;22411;53.016;18.632;2023-01-13T16:01:52;10.75;;;6.88;;
36379;SDS011;22411;53.016;18.632;2023-01-13T16:04:28;10.03;;;7.03;;
36379;SDS011;22411;53.016;18.632;2023-01-13T16:06:54;7.85;;;5.05;;
36379;SDS011;22411;53.016;18.632;2023-01-13T16:09:21;5.45;;;3.53;;
36379;SDS011;22411;53.016;18.632;2023-01-13T16:11:47;7.82;;;4.80;;
36379;SDS011;22411;53.016;18.632;2023-01-13T16:14:13;7.90;;;5.65;;
36379;SDS011;22411;53.016;18.632;2023-01-13T16:16:40;10.40;;;7.18;;
36379;SDS011;22411;53.016;18.632;2023-01-13T16:19:08;14.30;;;9.32;;
36379;SDS011;22411;53.016;18.632;2023-01-13T16:21:36;13.30;;;8.15;;
36379;SDS011;22411;53.016;18.632;2023-01-13T16:24:03;13.38;;;10.50;;
36379;SDS011;22411;53.016;18.632;2023-01-13T16:26:29;22.58;;;15.15;;
36379;SDS011;22411;53.016;18.632;2023-01-13T16:28:55;23.33;;;17.88;;
36379;SDS011;22411;53.016;18.632;2023-01-13T16:31:24;27.80;;;20.23;;
36379;SDS011;22411;53.016;18.632;2023-01-13T16:33:57;14.77;;;9.40;;
36379;SDS011;22411;53.016;18.632;2023-01-13T16:36:27;20.10;;;11.43;;
36379;SDS011;22411;53.016;18.632;2023-01-13T16:38:55;20.40;;;10.57;;
36379;SDS011;22411;53.016;18.632;2023-01-13T16:41:21;25.10;;;11.68;;
36379;SDS011;22411;53.016;18.632;2023-01-13T16:43:49;45.05;;;29.92;;
36379;SDS011;22411;53.016;18.632;2023-01-13T16:46:17;64.07;;;45.70;;
36379;SDS011;22411;53.016;18.632;2023-01-13T16:48:52;26.70;;;17.30;;
36379;SDS011;22411;53.016;18.632;2023-01-13T16:51:20;21.13;;;13.52;;
36379;SDS011;22411;53.016;18.632;2023-01-13T16:53:48;12.52;;;6.15;;
36379;SDS011;22411;53.016;18.632;2023-01-13T16:58:51;22.40;;;10.02;;
36379;SDS011;22411;53.016;18.632;2023-01-13T17:01:20;27.27;;;10.52;;
36379;SDS011;22411;53.016;18.632;2023-01-13T17:03:51;15.23;;;8.30;;
36379;SDS011;22411;53.016;18.632;2023-01-13T17:06:37;15.90;;;7.80;;
36379;SDS011;22411;53.016;18.632;2023-01-13T17:09:07;13.55;;;7.10;;
36379;SDS011;22411;53.016;18.632;2023-01-13T17:11:39;6.93;;;5.20;;
36379;SDS011;22411;53.016;18.632;2023-01-13T17:14:05;8.48;;;6.05;;
36379;SDS011;22411;53.016;18.632;2023-01-13T17:16:31;16.27;;;8.57;;
36379;SDS011;22411;53.016;18.632;2023-01-13T17:18:57;8.80;;;6.20;;
36379;SDS011;22411;53.016;18.632;2023-01-13T17:21:23;11.65;;;6.30;;
36379;SDS011;22411;53.016;18.632;2023-01-13T17:23:49;11.50;;;7.00;;
36379;SDS011;22411;53.016;18.632;2023-01-13T17:26:32;16.20;;;9.35;;
36379;SDS011;22411;53.016;18.632;2023-01-13T17:29:05;9.93;;;6.72;;
36379;SDS011;22411;53.016;18.632;2023-01-13T17:31:34;18.33;;;9.43;;
36379;SDS011;22411;53.016;18.632;2023-01-13T17:34:01;12.63;;;7.20;;
36379;SDS011;22411;53.016;18.632;2023-01-13T17:36:28;11.60;;;7.50;;
36379;SDS011;22411;53.016;18.632;2023-01-13T17:38:55;13.70;;;8.18;;